createdAt,value
2022-09-10T00:12:04.063Z,22.3
2022-09-10T00:22:06.755Z,22.2
2022-09-10T00:32:08.786Z,22.2
2022-09-10T00:42:10.662Z,22.2
2022-09-10T00:52:12.772Z,22.1
2022-09-10T01:02:15.034Z,22.1
2022-09-10T01:12:17.266Z,22.1
2022-09-10T01:22:19.754Z,22.1
2022-09-10T01:32:22.283Z,22.1
2022-09-10T01:42:24.109Z,22.1
2022-09-10T01:52:26.294Z,22.1
2022-09-10T02:02:28.720Z,22
2022-09-10T02:12:30.391Z,22
2022-09-10T02:22:32.431Z,22
2022-09-10T02:32:34.140Z,22
2022-09-10T02:42:36.068Z,22
2022-09-10T02:52:37.770Z,22
2022-09-10T03:02:39.937Z,22
2022-09-10T03:12:42.619Z,21.9
2022-09-10T03:22:45.055Z,21.9
2022-09-10T03:32:47.640Z,21.9
2022-09-10T03:42:50.003Z,21.9
2022-09-10T03:52:52.489Z,21.9
2022-09-10T04:02:54.901Z,21.8
2022-09-10T04:12:57.538Z,21.8
2022-09-10T04:22:59.407Z,21.8
2022-09-10T04:33:01.863Z,21.8
2022-09-10T04:43:04.520Z,21.8
2022-09-10T05:03:09.152Z,21.7
2022-09-10T05:13:11.687Z,21.7
2022-09-10T05:23:14.198Z,21.7
2022-09-10T05:33:16.086Z,21.6
2022-09-10T05:43:18.300Z,21.6
2022-09-10T05:53:20.396Z,21.6
2022-09-10T06:03:22.686Z,21.6
2022-09-10T06:13:24.781Z,21.5
2022-09-10T06:23:26.686Z,21.5
2022-09-10T06:33:29.137Z,21.5
2022-09-10T06:43:31.701Z,21.5
2022-09-10T06:53:33.501Z,21.5
2022-09-10T07:03:35.300Z,21.5
2022-09-10T07:13:37.042Z,21.5
2022-09-10T07:43:43.923Z,21.5
2022-09-10T07:53:50.419Z,21.5
2022-09-10T08:03:48.440Z,21.6
2022-09-10T08:23:52.765Z,21.6
2022-09-10T08:43:57.466Z,21.6
2022-09-10T08:53:59.697Z,21.6
2022-09-10T09:04:06.003Z,21.7
2022-09-10T09:14:03.837Z,21.7
2022-09-10T09:24:13.765Z,21.7
2022-09-10T09:34:07.773Z,21.8
2022-09-10T09:44:10.217Z,21.8
2022-09-10T09:54:42.703Z,21.8
2022-09-10T10:14:16.985Z,21.8
2022-09-10T10:34:21.226Z,21.8
2022-09-10T10:54:24.753Z,21.8
2022-09-10T11:54:37.815Z,21.5
2022-09-10T12:14:42.190Z,21.6
2022-09-10T12:24:44.521Z,21.6
2022-09-10T12:54:50.438Z,21.6
2022-09-10T13:04:52.182Z,21.6
2022-09-10T13:25:18.106Z,21.6
2022-09-10T13:45:08.340Z,21.6
2022-09-10T13:55:10.333Z,21.6
2022-09-10T14:05:12.178Z,21.6
2022-09-10T14:15:14.004Z,21.6
2022-09-10T14:35:18.599Z,21.6
2022-09-10T14:45:21.083Z,21.6
2022-09-10T14:55:22.951Z,21.6
2022-09-10T15:15:28.013Z,21.7
2022-09-10T15:25:32.288Z,21.7
2022-09-10T15:35:33.059Z,21.7
2022-09-10T16:25:43.878Z,21.9
2022-09-10T16:45:47.939Z,21.9
2022-09-10T17:05:52.770Z,21.9
2022-09-10T17:25:57.747Z,21.9
2022-09-10T17:36:00.055Z,21.9
2022-09-10T17:46:02.509Z,21.9
2022-09-10T17:56:04.559Z,21.8
2022-09-10T18:06:06.383Z,21.8
2022-09-10T18:16:08.362Z,21.8
2022-09-10T18:26:10.593Z,21.8
2022-09-10T18:36:12.827Z,21.7
2022-09-10T18:46:15.101Z,21.7
2022-09-10T19:16:21.973Z,21.6
2022-09-10T19:36:26.382Z,21.6
2022-09-10T19:56:31.028Z,21.6
2022-09-10T20:06:33.488Z,21.6
2022-09-10T20:26:37.131Z,21.5
2022-09-10T20:36:38.827Z,21.5
2022-09-10T20:46:40.826Z,21.5
2022-09-10T20:56:42.880Z,21.5
2022-09-10T21:06:45.389Z,21.4
2022-09-10T21:16:47.855Z,21.4
2022-09-10T21:26:50.517Z,21.4
2022-09-10T21:36:52.393Z,21.3
2022-09-10T21:46:54.743Z,21.3
2022-09-10T21:56:56.922Z,21.3
2022-09-10T22:37:05.632Z,21.2
2022-09-10T22:57:10.340Z,21.2
2022-09-10T23:17:16.056Z,21.1
2022-09-10T23:27:17.200Z,21.1
2022-09-10T23:37:19.501Z,21.1
2022-09-10T23:47:22.070Z,21.1
2022-09-10T23:57:24.301Z,21
